HALF-HOURLY OBSERVATIONS INDEX

022

Yorke Peninsula and Kangaroo Island

CAPE BORDA

Site: 022823
Alt: 158.0m
95km W of KINGSCOTE (KANGAROO ISLAND)


  Time     Wind        Temp  DP   Baro     Rain since   Rain past  Vis(m), Cloud(base in m), Weather
  local        km/h                         9am  last   hr   10m    
Wed 15:30  SSW 24/ 33  14.5  9.5  1029.0    0.0   0.0   0.0   0.0   ----- 
Wed 16:00  SSW 24/ 30  14.5  9.7  1029.0    0.0   0.0   0.0   0.0   ----- 
Wed 16:30  SSW 22/ 28  14.3  9.7  1029.1    0.0   0.0   0.0   0.0   ----- 
Wed 17:00  SSW 22/ 28  14.1 10.1  1029.5    0.0   0.0   0.0   0.0   ----- 
Wed 17:30  SSW 19/ 26  13.6 10.0  1029.7    0.0   0.0   0.0   0.0   ----- 
Wed 18:00  SSW 20/ 24  12.9  9.9  1029.9    0.0   0.0   0.0   0.0   ----- 
Wed 18:30    S 11/ 17  11.8  9.7  1030.1    0.0   0.0   0.0   0.0   ----- 
Wed 19:00    S 15/ 19  11.4  9.8  1030.4    0.0   0.0   0.0   0.0   ----- 
Wed 19:30    S 13/ 15  10.9  9.5  1030.7    0.0   0.0   0.0   0.0   ----- 
Wed 20:00    S 13/ 17  10.7  9.5  1030.9    0.0   0.0   0.0   0.0   ----- 
Wed 20:30    S 15/ 17  10.3  8.9  1031.0    0.0   0.0   0.0   0.0   ----- 
Wed 21:00    S 15/ 17  10.1  8.9  1031.0    0.0   0.0   0.0   0.0   ----- 

CAPE WILLOUGHBY

Site: 022803
Alt: 55.0m
49km ESE of KINGSCOTE (KANGAROO ISLAND)


  Time     Wind        Temp  DP   Baro     Rain since   Rain past  Vis(m), Cloud(base in m), Weather
  local        km/h                         9am  last   hr   10m    
Wed 15:30    S 15/ 22  14.3  9.1  1028.8    0.0   0.0   0.0   0.0   ----- 
Wed 16:00  SSW 17/ 22  14.2  9.4  1028.9    0.0   0.0   0.0   0.0   ----- 
Wed 16:30  SSW 15/ 22  14.1  9.3  1029.0    0.0   0.0   0.0   0.0   ----- 
Wed 17:00  SSW 17/ 24  13.9  9.5  1029.4    0.0   0.0   0.0   0.0   ----- 
Wed 17:30    S 15/ 22  13.8  9.8  1029.7    0.0   0.0   0.0   0.0   ----- 
Wed 18:00  SSW 15/ 24  13.6  9.8  1029.9    0.0   0.0   0.0   0.0   ----- 
Wed 18:30    S 13/ 19  13.5 10.1  1030.0    0.0   0.0   0.0   0.0   ----- 
Wed 19:00    S 15/ 22  13.5 10.1  1030.2    0.0   0.0   0.0   0.0   ----- 
Wed 19:30    S 13/ 20  13.6 10.6  1030.6    0.0   0.0   0.0   0.0   ----- 
Wed 20:00  SSW 15/ 20  13.5 10.5  1030.9    0.0   0.0   0.0   0.0   ----- 
Wed 20:30    S 13/ 20  13.7 10.9  1031.1    0.0   0.0   0.0   0.0   ----- 
Wed 21:00    S 15/ 20  13.6 11.0  1031.0    0.0   0.0   0.0   0.0   ----- 

EDITHBURGH

Site: 022046
Alt: 6.0m
61km N of KINGSCOTE (KANGAROO ISLAND)


  Time     Wind        Temp  DP   Baro     Rain since   Rain past  Vis(m), Cloud(base in m), Weather
  local        km/h                         9am  last   hr   10m    
Wed 15:30    S 15/ 24  16.7  8.4  1028.5    0.0   0.0   0.0   0.0   ----- 
Wed 16:00    S 17/ 24  16.5  9.0  1028.6    0.0   0.0   0.0   0.0   ----- 
Wed 16:30  SSW 15/ 22  16.5  9.2  1028.7    0.0   0.0   0.0   0.0   ----- 
Wed 17:00    S 15/ 20  15.7  9.4  1029.1    0.0   0.0   0.0   0.0   ----- 
Wed 17:30    S 11/ 19  15.2  9.1  1029.3    0.0   0.0   0.0   0.0   ----- 
Wed 18:00    S 17/ 20  14.6  9.6  1029.7    0.0   0.0   0.0   0.0   ----- 
Wed 18:30  SSE 11/ 19  13.9 10.1  1029.8    0.0   0.0   0.0   0.0   ----- 
Wed 19:00  SSE 15/ 20  14.0 10.2  1030.2    0.0   0.0   0.0   0.0   ----- 
Wed 19:30  SSE 17/ 20  13.8 10.4  1030.5    0.0   0.0   0.0   0.0   ----- 
Wed 20:00  SSE 15/ 20  13.6 10.4  1030.6    0.0   0.0   0.0   0.0   ----- 
Wed 20:30  SSE 15/ 19  13.5 10.1  1030.9    0.0   0.0   0.0   0.0   ----- 
Wed 21:00  SSE 13/ 19  13.4 10.4  1031.0    0.0   0.0   0.0   0.0   ----- 

KADINA AWS

Site: 022050
Alt: 41.1m
45km N of MAITLAND (YORKE PENINSULA)


  Time     Wind        Temp  DP   Baro     Rain since   Rain past  Vis(m), Cloud(base in m), Weather
  local        km/h                         9am  last   hr   10m    
Wed 15:30    S 26/ 37  20.1  7.8  1027.0    0.2   0.0   0.0   0.0   ----- 
Wed 16:00  SSE 26/ 39  20.7  5.1  1027.0    0.2   0.0   0.0   0.0   ----- 
Wed 16:30  SSE 24/ 33  19.9  5.2  1027.3    0.2   0.0   0.0   0.0   ----- 
Wed 17:00  SSE 26/ 33  19.2  4.2  1027.9    0.2   0.0   0.0   0.0   ----- 
Wed 17:30  SSE 22/ 32  18.2  4.4  1028.2    0.2   0.0   0.0   0.0   ----- 
Wed 18:00  SSE 20/ 28  16.8  5.4  1028.8    0.2   0.0   0.0   0.0   ----- 
Wed 18:30  SSE 17/ 20  14.9  5.7  1029.3    0.2   0.0   0.0   0.0   ----- 
Wed 19:00   SE 17/ 20  13.6  6.2  1029.6    0.2   0.0   0.0   0.0   ----- 
Wed 19:30  SSE 15/ 17  11.9  6.4  1030.0    0.2   0.0   0.0   0.0   ----- 
Wed 20:00  SSE 13/ 17  11.0  7.1  1030.2    0.2   0.0   0.0   0.0   ----- 
Wed 20:30  SSE 19/ 24  12.4  8.1  1030.4    0.2   0.0   0.0   0.0   ----- 
Wed 21:00  SSE 19/ 24  11.9  8.4  1030.5    0.2   0.0   0.0   0.0   ----- 

KINGSCOTE AERO

Site: 022841
Alt: 6.2m
12km WSW of KINGSCOTE (KANGAROO ISLAND)


  Time     Wind        Temp  DP   Baro     Rain since   Rain past  Vis(m), Cloud(base in m), Weather
  local        km/h                         9am  last   hr   10m    
Wed 15:30    S 17/ 20  18.2  8.5  1028.5    0.0   0.0   0.0   0.0   10000 
Wed 16:00    S 19/ 24  17.5  9.2  1028.7    0.0   0.0   0.0   0.0   10000 
Wed 16:30    S 19/ 24  16.9  9.3  1028.9    0.0   0.0   0.0   0.0   10000 
Wed 17:00    S 20/ 24  16.3  9.3  1029.2    0.0   0.0   0.0   0.0   10000 
Wed 17:30    S 17/ 22  15.6 10.2  1029.5    0.0   0.0   0.0   0.0   10000 
Wed 18:00    S 13/ 17  14.4  9.8  1029.7    0.0   0.0   0.0   0.0   10000 
Wed 18:30  SSW 11/ 15  12.9  9.5  1030.0    0.0   0.0   0.0   0.0   10000 
Wed 19:00  SSW 11/ 13  11.9  9.1  1030.3    0.0   0.0   0.0   0.0   10000 
Wed 19:30  SSW  6/  7  11.1  8.8  1030.7    0.0   0.0   0.0   0.0   10000 
Wed 20:00  SSW  7/  7  10.6  8.7  1030.9    0.0   0.0   0.0   0.0   10000 
Wed 20:30    C  0/  0  10.1  8.5  1031.1    0.0   0.0   0.0   0.0   10000 
Wed 21:00    C  0/  0   8.9  7.4  1031.2    0.0   0.0   0.0   0.0   10000 

MINLATON AERO

Site: 022031
Alt: 32.0m
44km SSW of MAITLAND (YORKE PENINSULA)


  Time     Wind        Temp  DP   Baro     Rain since   Rain past  Vis(m), Cloud(base in m), Weather
  local        km/h                         9am  last   hr   10m    
Wed 15:30    S 20/ 32  19.5  6.6  1028.0    0.0   0.0   0.0   0.0   ----- 
Wed 16:00    S 22/ 32  19.2  7.0  1028.0    0.0   0.0   0.0   0.0   ----- 
Wed 16:30    S 22/ 32  18.3  7.4  1028.2    0.0   0.0   0.0   0.0   ----- 
Wed 17:00    S 20/ 28  17.4  8.0  1028.7    0.0   0.0   0.0   0.0   ----- 
Wed 17:30    S 19/ 24  16.4  8.4  1029.1    0.0   0.0   0.0   0.0   ----- 
Wed 18:00    S 17/ 20  15.1  8.6  1029.4    0.0   0.0   0.0   0.0   ----- 
Wed 18:30  SSE 13/ 15  12.7  8.4  1029.8    0.0   0.0   0.0   0.0   ----- 
Wed 19:00  SSE 17/ 17  11.3  8.3  1030.0    0.0   0.0   0.0   0.0   ----- 
Wed 19:30  SSE 17/ 19  11.4  9.0  1030.4    0.0   0.0   0.0   0.0   ----- 
Wed 20:00   SE 17/ 19  11.0  8.8  1030.6    0.0   0.0   0.0   0.0   ----- 
Wed 20:30  ESE 15/ 17  10.0  7.8  1030.7    0.0   0.0   0.0   0.0   ----- 
Wed 21:00  ESE 15/ 17   9.4  7.7  1030.8    0.0   0.0   0.0   0.0   ----- 

MOONTA (WARBURTO POINT)

Site: 022053
Alt: 1.0m
43km NNW of MAITLAND (YORKE PENINSULA)


  Time     Wind        Temp  DP   Baro     Rain since   Rain past  Vis(m), Cloud(base in m), Weather
  local        km/h                         9am  last   hr   10m    
Wed 15:30   SW 35/ 43 --------  ------   ----  ----  ----  ----   ----- 
Wed 16:00  SSW 33/ 43 --------  ------   ----  ----  ----  ----   ----- 
Wed 16:30  SSW 35/ 45 --------  ------   ----  ----  ----  ----   ----- 
Wed 17:00  SSW 33/ 39 --------  ------   ----  ----  ----  ----   ----- 
Wed 17:30  SSW 32/ 37 --------  ------   ----  ----  ----  ----   ----- 
Wed 18:00  SSW 33/ 41 --------  ------   ----  ----  ----  ----   ----- 
Wed 18:30    S 35/ 41 --------  ------   ----  ----  ----  ----   ----- 
Wed 19:00    S 28/ 33 --------  ------   ----  ----  ----  ----   ----- 
Wed 19:30    S 24/ 32 --------  ------   ----  ----  ----  ----   ----- 
Wed 20:00   SE 24/ 32 --------  ------   ----  ----  ----  ----   ----- 
Wed 20:30   SE 26/ 33 --------  ------   ----  ----  ----  ----   ----- 
Wed 21:00   SE 26/ 32 --------  ------   ----   0.0   0.0  ----   ----- 

PARNDANA CFS AWS

Site: 022843
Alt: 165.0m
38km WSW of KINGSCOTE (KANGAROO ISLAND)


  Time     Wind        Temp  DP   Baro     Rain since   Rain past  Vis(m), Cloud(base in m), Weather
  local        km/h                         9am  last   hr   10m    
Wed 15:30  SSW 15/ 22  16.4 11.6  ------    0.2   0.0   0.0   0.0   ----- 
Wed 16:00  SSW 15/ 24  15.3  9.7  ------    0.2   0.0   0.0   0.0   ----- 
Wed 16:30  SSW 17/ 24  14.9 10.1  ------    0.2   0.0   0.0   0.0   ----- 
Wed 17:00    S 15/ 22  14.1  9.3  ------    0.2   0.0   0.0   0.0   ----- 
Wed 17:30    S 13/ 19  13.4  9.6  ------    0.2   0.0   0.0   0.0   ----- 
Wed 18:00    S 11/ 15  12.3  9.3  ------    0.2   0.0   0.0   0.0   ----- 
Wed 18:30  SSW 11/ 13  10.3  8.6  ------    0.2   0.0   0.0   0.0   ----- 
Wed 19:00    S 11/ 13  10.1  8.5  ------    0.2   0.0   0.0   0.0   ----- 
Wed 19:30  SSW  7/  9   9.7  8.6  ------    0.2   0.0   0.0   0.0   ----- 
Wed 20:00  SSW  7/  7   9.7  8.9  ------    0.2   0.0   0.0   0.0   ----- 
Wed 20:30  SSW 11/ 13   8.8  8.0  ------    0.2   0.0   0.0   0.0   ----- 
Wed 21:00  SSW  9/ 11   8.6  8.0  ------    0.2   0.0   0.0   0.0   ----- 

STENHOUSE BAY

Site: 022049
Alt: 42.0m
76km WNW of KINGSCOTE (KANGAROO ISLAND)


  Time     Wind        Temp  DP   Baro     Rain since   Rain past  Vis(m), Cloud(base in m), Weather
  local        km/h                         9am  last   hr   10m    
Wed 15:30   SW 20/ 26  16.9 10.7  1028.7    0.0   0.0   0.0   0.0   ----- 
Wed 16:00   SW 20/ 28  16.0 10.3  1028.7    0.0   0.0   0.0   0.0   ----- 
Wed 16:30   SW 20/ 26  15.6 10.4  1028.9    0.0   0.0   0.0   0.0   ----- 
Wed 17:00   SW 19/ 26  15.4 10.6  1029.1    0.0   0.0   0.0   0.0   ----- 
Wed 17:30   SW 20/ 26  14.9 10.9  1029.4    0.0   0.0   0.0   0.0   ----- 
Wed 18:00   SW 22/ 32  14.4 11.2  1029.4    0.0   0.0   0.0   0.0   ----- 
Wed 18:30   SW 22/ 28  14.0 11.0  1029.6    0.0   0.0   0.0   0.0   ----- 
Wed 19:00   SW 15/ 24  14.0 11.3  1029.9    0.0   0.0   0.0   0.0   ----- 
Wed 19:30  SSW 20/ 28  14.1 11.6  1030.2    0.0   0.0   0.0   0.0   ----- 
Wed 20:00  SSW 20/ 30  14.1 11.6  1030.6    0.0   0.0   0.0   0.0   ----- 
Wed 20:30    S 20/ 24  14.1 11.3  1030.9    0.0   0.0   0.0   0.0   ----- 
Wed 21:00    S 22/ 26  14.1  9.9  1030.9    0.0   0.0   0.0   0.0   -----